sensor_id;sensor_type;location;lat;lon;timestamp;P1;durP1;ratioP1;P2;durP2;ratioP2
11663;SDS011;72375;59.302;18.204;2024-02-26T00:01:27;17.97;;;8.13;;
11663;SDS011;72375;59.302;18.204;2024-02-26T00:04:12;15.73;;;8.67;;
11663;SDS011;72375;59.302;18.204;2024-02-26T00:06:58;14.67;;;8.87;;
11663;SDS011;72375;59.302;18.204;2024-02-26T00:09:43;16.73;;;9.30;;
11663;SDS011;72375;59.302;18.204;2024-02-26T00:12:29;18.97;;;9.47;;
11663;SDS011;72375;59.302;18.204;2024-02-26T00:15:15;15.23;;;7.53;;
11663;SDS011;72375;59.302;18.204;2024-02-26T00:18:02;13.70;;;7.93;;
11663;SDS011;72375;59.302;18.204;2024-02-26T00:20:48;14.50;;;7.87;;
11663;SDS011;72375;59.302;18.204;2024-02-26T00:23:33;15.77;;;8.20;;
11663;SDS011;72375;59.302;18.204;2024-02-26T00:26:19;13.93;;;7.97;;
11663;SDS011;72375;59.302;18.204;2024-02-26T00:29:05;13.57;;;8.17;;
11663;SDS011;72375;59.302;18.204;2024-02-26T00:31:50;16.47;;;8.40;;
11663;SDS011;72375;59.302;18.204;2024-02-26T00:34:37;15.97;;;8.73;;
11663;SDS011;72375;59.302;18.204;2024-02-26T00:37:23;15.67;;;8.67;;
11663;SDS011;72375;59.302;18.204;2024-02-26T00:40:09;14.37;;;8.10;;
11663;SDS011;72375;59.302;18.204;2024-02-26T00:42:55;19.87;;;9.13;;
11663;SDS011;72375;59.302;18.204;2024-02-26T00:45:40;16.50;;;8.97;;
11663;SDS011;72375;59.302;18.204;2024-02-26T00:48:26;16.33;;;8.20;;
11663;SDS011;72375;59.302;18.204;2024-02-26T00:51:13;13.57;;;7.57;;
11663;SDS011;72375;59.302;18.204;2024-02-26T00:53:59;14.50;;;8.63;;
11663;SDS011;72375;59.302;18.204;2024-02-26T00:56:45;15.80;;;8.47;;
11663;SDS011;72375;59.302;18.204;2024-02-26T00:59:30;15.47;;;8.63;;
11663;SDS011;72375;59.302;18.204;2024-02-26T01:02:16;13.70;;;8.17;;
11663;SDS011;72375;59.302;18.204;2024-02-26T01:05:02;13.23;;;7.47;;
11663;SDS011;72375;59.302;18.204;2024-02-26T01:07:49;14.17;;;7.03;;
11663;SDS011;72375;59.302;18.204;2024-02-26T01:10:34;10.47;;;6.30;;
11663;SDS011;72375;59.302;18.204;2024-02-26T01:13:20;10.70;;;6.87;;
11663;SDS011;72375;59.302;18.204;2024-02-26T01:16:05;11.10;;;6.43;;
11663;SDS011;72375;59.302;18.204;2024-02-26T01:18:51;11.23;;;6.60;;
11663;SDS011;72375;59.302;18.204;2024-02-26T01:21:37;10.93;;;6.50;;
11663;SDS011;72375;59.302;18.204;2024-02-26T01:24:24;10.57;;;6.33;;
11663;SDS011;72375;59.302;18.204;2024-02-26T01:27:09;9.30;;;6.20;;
11663;SDS011;72375;59.302;18.204;2024-02-26T01:29:54;9.30;;;5.90;;
11663;SDS011;72375;59.302;18.204;2024-02-26T01:32:40;9.97;;;5.87;;
11663;SDS011;72375;59.302;18.204;2024-02-26T01:35:26;11.27;;;6.50;;
11663;SDS011;72375;59.302;18.204;2024-02-26T01:38:12;8.33;;;5.53;;
11663;SDS011;72375;59.302;18.204;2024-02-26T01:40:59;10.60;;;5.87;;
11663;SDS011;72375;59.302;18.204;2024-02-26T01:43:45;8.20;;;5.27;;
11663;SDS011;72375;59.302;18.204;2024-02-26T01:46:30;8.73;;;5.97;;
11663;SDS011;72375;59.302;18.204;2024-02-26T01:49:19;8.83;;;5.50;;
11663;SDS011;72375;59.302;18.204;2024-02-26T01:52:06;8.10;;;5.60;;
11663;SDS011;72375;59.302;18.204;2024-02-26T01:54:52;7.40;;;5.03;;
11663;SDS011;72375;59.302;18.204;2024-02-26T01:57:39;8.13;;;5.17;;
11663;SDS011;72375;59.302;18.204;2024-02-26T02:00:25;8.70;;;5.33;;
11663;SDS011;72375;59.302;18.204;2024-02-26T02:03:11;9.07;;;5.80;;
11663;SDS011;72375;59.302;18.204;2024-02-26T02:05:57;7.57;;;5.23;;
11663;SDS011;72375;59.302;18.204;2024-02-26T02:08:43;7.50;;;4.87;;
11663;SDS011;72375;59.302;18.204;2024-02-26T02:11:29;6.83;;;4.67;;
11663;SDS011;72375;59.302;18.204;2024-02-26T02:14:16;5.97;;;4.50;;
11663;SDS011;72375;59.302;18.204;2024-02-26T02:17:01;7.87;;;4.83;;
11663;SDS011;72375;59.302;18.204;2024-02-26T02:19:47;7.00;;;4.43;;
11663;SDS011;72375;59.302;18.204;2024-02-26T02:22:34;6.90;;;5.03;;
11663;SDS011;72375;59.302;18.204;2024-02-26T02:25:19;6.53;;;4.63;;
11663;SDS011;72375;59.302;18.204;2024-02-26T02:28:05;7.27;;;4.67;;
11663;SDS011;72375;59.302;18.204;2024-02-26T02:30:51;6.63;;;5.03;;
11663;SDS011;72375;59.302;18.204;2024-02-26T02:33:37;8.47;;;5.73;;
11663;SDS011;72375;59.302;18.204;2024-02-26T02:36:22;7.13;;;4.80;;
11663;SDS011;72375;59.302;18.204;2024-02-26T02:39:09;8.47;;;4.97;;
11663;SDS011;72375;59.302;18.204;2024-02-26T02:41:55;6.20;;;4.87;;
11663;SDS011;72375;59.302;18.204;2024-02-26T02:44:40;5.90;;;4.23;;
11663;SDS011;72375;59.302;18.204;2024-02-26T02:47:28;6.00;;;4.47;;
11663;SDS011;72375;59.302;18.204;2024-02-26T02:50:14;7.03;;;5.10;;
11663;SDS011;72375;59.302;18.204;2024-02-26T02:52:59;6.63;;;4.77;;
11663;SDS011;72375;59.302;18.204;2024-02-26T02:55:47;6.63;;;4.60;;
11663;SDS011;72375;59.302;18.204;2024-02-26T02:58:32;8.40;;;5.13;;
11663;SDS011;72375;59.302;18.204;2024-02-26T03:01:18;7.77;;;5.43;;
11663;SDS011;72375;59.302;18.204;2024-02-26T03:04:03;7.67;;;5.40;;
11663;SDS011;72375;59.302;18.204;2024-02-26T03:06:49;7.00;;;5.13;;
11663;SDS011;72375;59.302;18.204;2024-02-26T03:09:35;7.30;;;5.17;;
11663;SDS011;72375;59.302;18.204;2024-02-26T03:12:22;8.87;;;5.67;;
11663;SDS011;72375;59.302;18.204;2024-02-26T03:15:08;7.27;;;5.23;;
11663;SDS011;72375;59.302;18.204;2024-02-26T03:17:55;7.13;;;5.20;;
11663;SDS011;72375;59.302;18.204;2024-02-26T03:20:41;7.70;;;5.33;;
11663;SDS011;72375;59.302;18.204;2024-02-26T03:23:26;6.20;;;5.47;;
11663;SDS011;72375;59.302;18.204;2024-02-26T03:26:13;9.20;;;6.27;;
11663;SDS011;72375;59.302;18.204;2024-02-26T03:29:00;8.07;;;5.67;;
11663;SDS011;72375;59.302;18.204;2024-02-26T03:31:46;8.67;;;6.30;;
11663;SDS011;72375;59.302;18.204;2024-02-26T03:34:32;8.07;;;6.13;;
11663;SDS011;72375;59.302;18.204;2024-02-26T03:37:18;10.03;;;6.53;;
11663;SDS011;72375;59.302;18.204;2024-02-26T03:40:04;8.87;;;6.50;;
11663;SDS011;72375;59.302;18.204;2024-02-26T03:42:50;9.07;;;6.70;;
11663;SDS011;72375;59.302;18.204;2024-02-26T03:45:38;9.30;;;6.10;;
11663;SDS011;72375;59.302;18.204;2024-02-26T03:48:24;8.90;;;5.93;;
11663;SDS011;72375;59.302;18.204;2024-02-26T03:51:09;8.00;;;6.27;;
11663;SDS011;72375;59.302;18.204;2024-02-26T03:53:55;8.47;;;6.17;;
11663;SDS011;72375;59.302;18.204;2024-02-26T03:56:41;10.27;;;7.07;;
11663;SDS011;72375;59.302;18.204;2024-02-26T03:59:26;10.87;;;6.57;;
11663;SDS011;72375;59.302;18.204;2024-02-26T04:02:13;9.97;;;6.77;;
11663;SDS011;72375;59.302;18.204;2024-02-26T04:04:59;9.43;;;6.80;;
11663;SDS011;72375;59.302;18.204;2024-02-26T04:07:45;8.63;;;6.27;;
11663;SDS011;72375;59.302;18.204;2024-02-26T04:10:31;9.73;;;6.93;;
11663;SDS011;72375;59.302;18.204;2024-02-26T04:13:19;10.27;;;7.00;;
11663;SDS011;72375;59.302;18.204;2024-02-26T04:16:05;12.00;;;7.20;;
11663;SDS011;72375;59.302;18.204;2024-02-26T04:18:52;10.07;;;6.93;;
11663;SDS011;72375;59.302;18.204;2024-02-26T04:21:40;11.17;;;6.77;;
11663;SDS011;72375;59.302;18.204;2024-02-26T04:24:26;11.33;;;7.30;;
11663;SDS011;72375;59.302;18.204;2024-02-26T04:27:12;8.67;;;6.47;;
11663;SDS011;72375;59.302;18.204;2024-02-26T04:29:57;10.63;;;7.00;;
11663;SDS011;72375;59.302;18.204;2024-02-26T04:32:43;9.90;;;6.73;;
11663;SDS011;72375;59.302;18.204;2024-02-26T04:35:30;11.67;;;7.43;;
11663;SDS011;72375;59.302;18.204;2024-02-26T04:38:16;12.97;;;7.77;;
11663;SDS011;72375;59.302;18.204;2024-02-26T04:41:01;12.20;;;8.43;;
11663;SDS011;72375;59.302;18.204;2024-02-26T04:43:47;12.03;;;7.80;;
11663;SDS011;72375;59.302;18.204;2024-02-26T04:46:33;10.70;;;8.07;;
11663;SDS011;72375;59.302;18.204;2024-02-26T04:49:19;10.70;;;7.80;;
11663;SDS011;72375;59.302;18.204;2024-02-26T04:52:06;10.80;;;7.77;;
11663;SDS011;72375;59.302;18.204;2024-02-26T04:54:52;12.33;;;8.60;;
11663;SDS011;72375;59.302;18.204;2024-02-26T04:57:38;11.17;;;7.73;;
11663;SDS011;72375;59.302;18.204;2024-02-26T05:00:24;12.50;;;7.77;;
11663;SDS011;72375;59.302;18.204;2024-02-26T05:03:09;12.00;;;8.13;;
11663;SDS011;72375;59.302;18.204;2024-02-26T05:05:56;10.37;;;6.70;;
11663;SDS011;72375;59.302;18.204;2024-02-26T05:08:44;10.53;;;7.17;;
11663;SDS011;72375;59.302;18.204;2024-02-26T05:11:29;9.40;;;6.73;;
11663;SDS011;72375;59.302;18.204;2024-02-26T05:14:15;13.07;;;7.97;;
11663;SDS011;72375;59.302;18.204;2024-02-26T05:17:00;9.97;;;7.13;;
11663;SDS011;72375;59.302;18.204;2024-02-26T05:19:46;10.00;;;6.97;;
11663;SDS011;72375;59.302;18.204;2024-02-26T05:22:32;8.43;;;6.80;;
11663;SDS011;72375;59.302;18.204;2024-02-26T05:25:19;10.73;;;6.90;;
11663;SDS011;72375;59.302;18.204;2024-02-26T05:28:05;9.87;;;7.03;;
11663;SDS011;72375;59.302;18.204;2024-02-26T05:30:50;9.97;;;6.50;;
11663;SDS011;72375;59.302;18.204;2024-02-26T05:33:36;8.30;;;6.60;;
11663;SDS011;72375;59.302;18.204;2024-02-26T05:36:22;11.23;;;7.00;;
11663;SDS011;72375;59.302;18.204;2024-02-26T05:39:09;10.43;;;7.53;;
11663;SDS011;72375;59.302;18.204;2024-02-26T05:41:57;11.17;;;7.73;;
11663;SDS011;72375;59.302;18.204;2024-02-26T05:44:42;10.47;;;7.30;;
11663;SDS011;72375;59.302;18.204;2024-02-26T05:47:28;10.37;;;7.23;;
11663;SDS011;72375;59.302;18.204;2024-02-26T05:50:13;9.53;;;6.30;;
11663;SDS011;72375;59.302;18.204;2024-02-26T05:53:00;8.63;;;6.30;;
11663;SDS011;72375;59.302;18.204;2024-02-26T05:55:46;9.73;;;6.37;;
11663;SDS011;72375;59.302;18.204;2024-02-26T05:58:32;10.83;;;7.23;;
11663;SDS011;72375;59.302;18.204;2024-02-26T06:01:18;11.40;;;6.97;;
11663;SDS011;72375;59.302;18.204;2024-02-26T06:04:04;10.23;;;6.97;;
11663;SDS011;72375;59.302;18.204;2024-02-26T06:06:50;10.43;;;7.10;;
11663;SDS011;72375;59.302;18.204;2024-02-26T06:09:36;10.90;;;6.70;;
11663;SDS011;72375;59.302;18.204;2024-02-26T06:12:21;10.00;;;6.80;;
11663;SDS011;72375;59.302;18.204;2024-02-26T06:15:09;10.40;;;6.93;;
11663;SDS011;72375;59.302;18.204;2024-02-26T06:17:55;10.47;;;7.53;;
11663;SDS011;72375;59.302;18.204;2024-02-26T06:20:41;8.40;;;6.70;;
11663;SDS011;72375;59.302;18.204;2024-02-26T06:23:27;11.10;;;7.67;;
11663;SDS011;72375;59.302;18.204;2024-02-26T06:26:13;9.93;;;7.17;;
11663;SDS011;72375;59.302;18.204;2024-02-26T06:28:58;9.67;;;6.93;;
11663;SDS011;72375;59.302;18.204;2024-02-26T06:31:46;10.00;;;6.83;;
11663;SDS011;72375;59.302;18.204;2024-02-26T06:34:31;11.60;;;7.50;;
11663;SDS011;72375;59.302;18.204;2024-02-26T06:37:17;10.07;;;6.63;;
11663;SDS011;72375;59.302;18.204;2024-02-26T06:40:03;9.87;;;6.93;;
11663;SDS011;72375;59.302;18.204;2024-02-26T06:42:50;9.80;;;7.20;;
11663;SDS011;72375;59.302;18.204;2024-02-26T06:45:36;9.50;;;6.90;;
11663;SDS011;72375;59.302;18.204;2024-02-26T06:48:24;9.73;;;6.67;;
11663;SDS011;72375;59.302;18.204;2024-02-26T06:51:10;8.53;;;6.63;;
11663;SDS011;72375;59.302;18.204;2024-02-26T06:53:55;9.03;;;6.57;;
11663;SDS011;72375;59.302;18.204;2024-02-26T06:56:41;8.60;;;6.20;;
11663;SDS011;72375;59.302;18.204;2024-02-26T06:59:27;8.73;;;6.33;;
11663;SDS011;72375;59.302;18.204;2024-02-26T07:02:12;10.43;;;6.80;;
11663;SDS011;72375;59.302;18.204;2024-02-26T07:05:01;10.20;;;7.10;;
11663;SDS011;72375;59.302;18.204;2024-02-26T07:07:47;8.47;;;6.60;;
11663;SDS011;72375;59.302;18.204;2024-02-26T07:10:32;9.60;;;7.17;;
11663;SDS011;72375;59.302;18.204;2024-02-26T07:13:18;9.03;;;6.33;;
11663;SDS011;72375;59.302;18.204;2024-02-26T07:16:05;9.67;;;6.80;;
11663;SDS011;72375;59.302;18.204;2024-02-26T07:18:50;11.20;;;7.00;;
11663;SDS011;72375;59.302;18.204;2024-02-26T07:21:38;9.23;;;6.80;;
11663;SDS011;72375;59.302;18.204;2024-02-26T07:24:24;11.10;;;7.37;;
11663;SDS011;72375;59.302;18.204;2024-02-26T07:27:10;9.57;;;7.27;;
11663;SDS011;72375;59.302;18.204;2024-02-26T07:29:55;9.97;;;7.13;;
11663;SDS011;72375;59.302;18.204;2024-02-26T07:32:41;10.47;;;6.70;;
11663;SDS011;72375;59.302;18.204;2024-02-26T07:35:27;11.57;;;8.23;;
11663;SDS011;72375;59.302;18.204;2024-02-26T07:38:15;11.37;;;7.80;;
11663;SDS011;72375;59.302;18.204;2024-02-26T07:41:01;10.10;;;7.17;;
11663;SDS011;72375;59.302;18.204;2024-02-26T07:43:47;10.13;;;7.43;;
11663;SDS011;72375;59.302;18.204;2024-02-26T07:46:33;8.63;;;6.47;;
11663;SDS011;72375;59.302;18.204;2024-02-26T07:49:19;9.87;;;7.17;;
11663;SDS011;72375;59.302;18.204;2024-02-26T07:52:05;9.10;;;6.90;;
11663;SDS011;72375;59.302;18.204;2024-02-26T07:54:52;9.10;;;6.17;;
11663;SDS011;72375;59.302;18.204;2024-02-26T07:57:37;8.50;;;5.63;;
11663;SDS011;72375;59.302;18.204;2024-02-26T08:00:27;6.73;;;5.20;;
11663;SDS011;72375;59.302;18.204;2024-02-26T08:03:13;7.00;;;5.13;;
11663;SDS011;72375;59.302;18.204;2024-02-26T08:05:59;6.47;;;4.80;;
11663;SDS011;72375;59.302;18.204;2024-02-26T08:08:45;6.33;;;5.30;;
11663;SDS011;72375;59.302;18.204;2024-02-26T08:11:32;6.13;;;4.70;;
11663;SDS011;72375;59.302;18.204;2024-02-26T08:14:17;6.10;;;4.90;;
11663;SDS011;72375;59.302;18.204;2024-02-26T08:17:03;5.83;;;4.47;;
11663;SDS011;72375;59.302;18.204;2024-02-26T08:19:49;4.53;;;4.10;;
11663;SDS011;72375;59.302;18.204;2024-02-26T08:22:34;5.37;;;4.33;;
11663;SDS011;72375;59.302;18.204;2024-02-26T08:25:21;4.70;;;3.83;;
11663;SDS011;72375;59.302;18.204;2024-02-26T08:28:08;4.53;;;3.80;;
11663;SDS011;72375;59.302;18.204;2024-02-26T08:30:55;4.80;;;3.63;;
11663;SDS011;72375;59.302;18.204;2024-02-26T08:33:40;4.53;;;3.97;;
11663;SDS011;72375;59.302;18.204;2024-02-26T08:36:26;5.30;;;3.73;;
11663;SDS011;72375;59.302;18.204;2024-02-26T08:39:12;4.73;;;3.43;;
11663;SDS011;72375;59.302;18.204;2024-02-26T08:41:58;4.57;;;3.43;;
11663;SDS011;72375;59.302;18.204;2024-02-26T08:44:45;4.93;;;4.10;;
11663;SDS011;72375;59.302;18.204;2024-02-26T08:47:30;4.93;;;3.97;;
11663;SDS011;72375;59.302;18.204;2024-02-26T08:50:16;4.73;;;3.90;;
11663;SDS011;72375;59.302;18.204;2024-02-26T08:53:02;5.37;;;4.53;;
11663;SDS011;72375;59.302;18.204;2024-02-26T08:55:48;5.17;;;4.53;;
11663;SDS011;72375;59.302;18.204;2024-02-26T08:58:35;6.57;;;5.13;;
11663;SDS011;72375;59.302;18.204;2024-02-26T09:01:21;6.10;;;4.30;;
11663;SDS011;72375;59.302;18.204;2024-02-26T09:04:08;6.30;;;4.97;;
11663;SDS011;72375;59.302;18.204;2024-02-26T09:06:54;7.60;;;5.30;;
11663;SDS011;72375;59.302;18.204;2024-02-26T09:09:39;6.83;;;5.03;;
11663;SDS011;72375;59.302;18.204;2024-02-26T09:12:25;8.03;;;5.60;;
11663;SDS011;72375;59.302;18.204;2024-02-26T09:15:11;7.27;;;5.53;;
11663;SDS011;72375;59.302;18.204;2024-02-26T09:17:58;6.80;;;4.90;;
11663;SDS011;72375;59.302;18.204;2024-02-26T09:20:43;6.17;;;4.57;;
11663;SDS011;72375;59.302;18.204;2024-02-26T09:23:29;6.50;;;4.30;;
11663;SDS011;72375;59.302;18.204;2024-02-26T09:26:15;6.67;;;5.17;;
11663;SDS011;72375;59.302;18.204;2024-02-26T09:29:00;6.13;;;4.60;;
11663;SDS011;72375;59.302;18.204;2024-02-26T09:31:46;5.37;;;4.57;;
11663;SDS011;72375;59.302;18.204;2024-02-26T09:34:33;6.03;;;4.63;;
11663;SDS011;72375;59.302;18.204;2024-02-26T09:37:18;7.50;;;5.33;;
11663;SDS011;72375;59.302;18.204;2024-02-26T09:40:04;6.90;;;5.10;;
11663;SDS011;72375;59.302;18.204;2024-02-26T09:42:56;7.93;;;5.77;;
11663;SDS011;72375;59.302;18.204;2024-02-26T09:45:45;7.10;;;5.33;;
11663;SDS011;72375;59.302;18.204;2024-02-26T09:48:31;8.63;;;5.70;;
11663;SDS011;72375;59.302;18.204;2024-02-26T09:51:20;8.20;;;5.47;;
11663;SDS011;72375;59.302;18.204;2024-02-26T09:54:09;7.03;;;5.70;;
11663;SDS011;72375;59.302;18.204;2024-02-26T09:56:55;8.30;;;6.00;;
11663;SDS011;72375;59.302;18.204;2024-02-26T09:59:44;8.07;;;5.60;;
11663;SDS011;72375;59.302;18.204;2024-02-26T10:02:33;8.10;;;6.13;;
11663;SDS011;72375;59.302;18.204;2024-02-26T10:05:20;7.10;;;5.30;;
11663;SDS011;72375;59.302;18.204;2024-02-26T10:08:07;7.57;;;5.37;;
11663;SDS011;72375;59.302;18.204;2024-02-26T10:10:54;6.97;;;4.90;;
11663;SDS011;72375;59.302;18.204;2024-02-26T10:13:39;6.80;;;5.50;;
11663;SDS011;72375;59.302;18.204;2024-02-26T10:16:25;6.97;;;5.70;;
11663;SDS011;72375;59.302;18.204;2024-02-26T10:19:11;7.77;;;6.20;;
11663;SDS011;72375;59.302;18.204;2024-02-26T10:22:10;6.63;;;5.47;;
11663;SDS011;72375;59.302;18.204;2024-02-26T10:24:57;8.30;;;6.20;;
11663;SDS011;72375;59.302;18.204;2024-02-26T10:27:43;7.83;;;5.93;;
11663;SDS011;72375;59.302;18.204;2024-02-26T10:30:30;6.03;;;5.30;;
11663;SDS011;72375;59.302;18.204;2024-02-26T10:33:16;7.07;;;5.87;;
11663;SDS011;72375;59.302;18.204;2024-02-26T10:36:01;8.30;;;5.87;;
11663;SDS011;72375;59.302;18.204;2024-02-26T10:38:47;5.83;;;5.23;;
11663;SDS011;72375;59.302;18.204;2024-02-26T10:41:35;7.60;;;5.17;;
11663;SDS011;72375;59.302;18.204;2024-02-26T10:44:20;7.97;;;6.03;;
11663;SDS011;72375;59.302;18.204;2024-02-26T10:47:07;7.83;;;5.47;;
11663;SDS011;72375;59.302;18.204;2024-02-26T10:49:53;5.80;;;5.00;;
11663;SDS011;72375;59.302;18.204;2024-02-26T10:52:39;5.57;;;4.97;;
11663;SDS011;72375;59.302;18.204;2024-02-26T10:55:26;5.93;;;5.10;;
11663;SDS011;72375;59.302;18.204;2024-02-26T10:58:14;6.87;;;5.33;;
11663;SDS011;72375;59.302;18.204;2024-02-26T11:01:01;7.20;;;5.20;;
11663;SDS011;72375;59.302;18.204;2024-02-26T11:03:48;7.10;;;5.17;;
11663;SDS011;72375;59.302;18.204;2024-02-26T11:06:35;5.80;;;5.20;;
11663;SDS011;72375;59.302;18.204;2024-02-26T11:09:22;6.77;;;5.40;;
11663;SDS011;72375;59.302;18.204;2024-02-26T11:12:08;5.87;;;4.83;;
11663;SDS011;72375;59.302;18.204;2024-02-26T11:14:57;7.50;;;5.10;;
11663;SDS011;72375;59.302;18.204;2024-02-26T11:17:45;6.23;;;5.07;;
11663;SDS011;72375;59.302;18.204;2024-02-26T11:20:32;6.17;;;5.57;;
11663;SDS011;72375;59.302;18.204;2024-02-26T11:23:19;6.07;;;5.00;;
11663;SDS011;72375;59.302;18.204;2024-02-26T11:26:05;6.57;;;5.13;;
11663;SDS011;72375;59.302;18.204;2024-02-26T11:28:51;7.27;;;5.37;;
11663;SDS011;72375;59.302;18.204;2024-02-26T11:31:39;7.40;;;4.53;;
11663;SDS011;72375;59.302;18.204;2024-02-26T11:34:26;6.37;;;5.10;;
11663;SDS011;72375;59.302;18.204;2024-02-26T11:37:13;6.67;;;5.50;;
11663;SDS011;72375;59.302;18.204;2024-02-26T11:40:01;5.67;;;4.90;;
11663;SDS011;72375;59.302;18.204;2024-02-26T11:42:47;6.70;;;5.17;;
11663;SDS011;72375;59.302;18.204;2024-02-26T11:45:53;5.70;;;4.53;;
11663;SDS011;72375;59.302;18.204;2024-02-26T11:48:44;5.60;;;4.80;;
11663;SDS011;72375;59.302;18.204;2024-02-26T11:51:32;5.03;;;4.33;;
11663;SDS011;72375;59.302;18.204;2024-02-26T11:57:29;4.80;;;4.00;;
11663;SDS011;72375;59.302;18.204;2024-02-26T12:00:16;4.80;;;3.63;;
11663;SDS011;72375;59.302;18.204;2024-02-26T12:03:06;5.00;;;4.20;;
11663;SDS011;72375;59.302;18.204;2024-02-26T12:05:55;7.13;;;4.50;;
11663;SDS011;72375;59.302;18.204;2024-02-26T12:08:41;5.97;;;4.50;;
11663;SDS011;72375;59.302;18.204;2024-02-26T12:11:29;5.00;;;4.50;;
11663;SDS011;72375;59.302;18.204;2024-02-26T12:14:15;4.97;;;3.93;;
11663;SDS011;72375;59.302;18.204;2024-02-26T12:17:03;4.23;;;3.63;;
11663;SDS011;72375;59.302;18.204;2024-02-26T12:19:50;4.23;;;3.53;;
11663;SDS011;72375;59.302;18.204;2024-02-26T12:22:38;3.90;;;3.40;;
11663;SDS011;72375;59.302;18.204;2024-02-26T12:25:25;4.20;;;3.80;;
11663;SDS011;72375;59.302;18.204;2024-02-26T12:28:13;5.13;;;3.53;;
11663;SDS011;72375;59.302;18.204;2024-02-26T12:30:59;4.30;;;3.57;;
11663;SDS011;72375;59.302;18.204;2024-02-26T12:33:45;3.90;;;3.20;;
11663;SDS011;72375;59.302;18.204;2024-02-26T12:36:30;4.43;;;3.90;;
11663;SDS011;72375;59.302;18.204;2024-02-26T12:39:17;4.23;;;3.13;;
11663;SDS011;72375;59.302;18.204;2024-02-26T12:42:04;4.07;;;3.67;;
11663;SDS011;72375;59.302;18.204;2024-02-26T12:44:52;3.97;;;3.47;;
11663;SDS011;72375;59.302;18.204;2024-02-26T12:47:38;6.50;;;4.20;;
11663;SDS011;72375;59.302;18.204;2024-02-26T12:50:24;4.57;;;3.80;;
11663;SDS011;72375;59.302;18.204;2024-02-26T12:53:09;4.37;;;3.93;;
11663;SDS011;72375;59.302;18.204;2024-02-26T12:55:58;5.80;;;4.60;;
11663;SDS011;72375;59.302;18.204;2024-02-26T12:58:43;4.50;;;3.63;;
11663;SDS011;72375;59.302;18.204;2024-02-26T13:01:31;4.40;;;4.00;;
11663;SDS011;72375;59.302;18.204;2024-02-26T13:04:17;4.27;;;3.87;;
11663;SDS011;72375;59.302;18.204;2024-02-26T13:07:04;4.20;;;3.53;;
11663;SDS011;72375;59.302;18.204;2024-02-26T13:09:49;5.33;;;4.83;;
11663;SDS011;72375;59.302;18.204;2024-02-26T13:12:38;4.87;;;4.30;;
11663;SDS011;72375;59.302;18.204;2024-02-26T13:15:28;5.83;;;4.37;;
11663;SDS011;72375;59.302;18.204;2024-02-26T13:18:14;4.57;;;3.53;;
11663;SDS011;72375;59.302;18.204;2024-02-26T13:21:09;5.43;;;3.50;;
11663;SDS011;72375;59.302;18.204;2024-02-26T13:23:56;4.00;;;3.60;;
11663;SDS011;72375;59.302;18.204;2024-02-26T13:26:42;4.63;;;3.77;;
11663;SDS011;72375;59.302;18.204;2024-02-26T13:29:30;4.93;;;4.00;;
11663;SDS011;72375;59.302;18.204;2024-02-26T13:32:15;5.83;;;4.37;;
11663;SDS011;72375;59.302;18.204;2024-02-26T13:35:05;5.10;;;4.23;;
11663;SDS011;72375;59.302;18.204;2024-02-26T13:37:52;4.60;;;4.10;;
11663;SDS011;72375;59.302;18.204;2024-02-26T13:40:38;4.83;;;4.20;;
11663;SDS011;72375;59.302;18.204;2024-02-26T13:43:24;5.23;;;4.47;;
11663;SDS011;72375;59.302;18.204;2024-02-26T13:46:11;6.77;;;4.50;;
11663;SDS011;72375;59.302;18.204;2024-02-26T13:48:58;6.50;;;5.50;;
11663;SDS011;72375;59.302;18.204;2024-02-26T13:51:44;6.60;;;5.20;;
11663;SDS011;72375;59.302;18.204;2024-02-26T13:54:30;6.13;;;5.00;;
11663;SDS011;72375;59.302;18.204;2024-02-26T13:57:16;5.20;;;4.70;;
11663;SDS011;72375;59.302;18.204;2024-02-26T14:00:02;5.37;;;4.50;;
11663;SDS011;72375;59.302;18.204;2024-02-26T14:02:51;5.23;;;4.73;;
11663;SDS011;72375;59.302;18.204;2024-02-26T14:05:36;6.80;;;4.90;;
11663;SDS011;72375;59.302;18.204;2024-02-26T14:08:22;5.97;;;5.10;;
11663;SDS011;72375;59.302;18.204;2024-02-26T14:11:08;5.50;;;5.00;;
11663;SDS011;72375;59.302;18.204;2024-02-26T14:13:53;6.80;;;5.43;;
11663;SDS011;72375;59.302;18.204;2024-02-26T14:16:39;5.37;;;4.60;;
11663;SDS011;72375;59.302;18.204;2024-02-26T14:19:26;7.17;;;4.90;;
11663;SDS011;72375;59.302;18.204;2024-02-26T14:22:12;5.90;;;5.10;;
11663;SDS011;72375;59.302;18.204;2024-02-26T14:24:59;6.20;;;5.30;;
11663;SDS011;72375;59.302;18.204;2024-02-26T14:27:44;5.63;;;4.97;;
11663;SDS011;72375;59.302;18.204;2024-02-26T14:30:30;6.83;;;5.43;;
11663;SDS011;72375;59.302;18.204;2024-02-26T14:33:16;5.97;;;5.20;;
11663;SDS011;72375;59.302;18.204;2024-02-26T14:36:03;5.90;;;5.07;;
11663;SDS011;72375;59.302;18.204;2024-02-26T14:38:50;7.10;;;5.90;;
11663;SDS011;72375;59.302;18.204;2024-02-26T14:41:36;6.30;;;5.07;;
11663;SDS011;72375;59.302;18.204;2024-02-26T14:44:21;5.57;;;4.97;;
11663;SDS011;72375;59.302;18.204;2024-02-26T14:47:08;7.13;;;5.70;;
11663;SDS011;72375;59.302;18.204;2024-02-26T14:49:53;6.00;;;5.20;;
11663;SDS011;72375;59.302;18.204;2024-02-26T14:52:40;6.87;;;5.37;;
11663;SDS011;72375;59.302;18.204;2024-02-26T14:55:26;5.73;;;5.13;;
11663;SDS011;72375;59.302;18.204;2024-02-26T14:58:11;5.90;;;4.93;;
11663;SDS011;72375;59.302;18.204;2024-02-26T15:00:57;6.53;;;5.73;;
11663;SDS011;72375;59.302;18.204;2024-02-26T15:03:43;7.47;;;5.40;;
11663;SDS011;72375;59.302;18.204;2024-02-26T15:06:29;8.30;;;6.00;;
11663;SDS011;72375;59.302;18.204;2024-02-26T15:09:16;6.30;;;5.50;;
11663;SDS011;72375;59.302;18.204;2024-02-26T15:12:01;6.07;;;5.23;;
11663;SDS011;72375;59.302;18.204;2024-02-26T15:14:49;6.90;;;5.60;;
11663;SDS011;72375;59.302;18.204;2024-02-26T15:17:35;5.73;;;5.13;;
11663;SDS011;72375;59.302;18.204;2024-02-26T15:20:21;6.43;;;5.53;;
11663;SDS011;72375;59.302;18.204;2024-02-26T15:23:07;6.63;;;5.67;;
11663;SDS011;72375;59.302;18.204;2024-02-26T15:25:54;6.47;;;5.23;;
11663;SDS011;72375;59.302;18.204;2024-02-26T15:28:40;6.83;;;5.63;;
11663;SDS011;72375;59.302;18.204;2024-02-26T15:31:26;6.00;;;5.40;;
11663;SDS011;72375;59.302;18.204;2024-02-26T15:34:11;6.40;;;4.90;;
11663;SDS011;72375;59.302;18.204;2024-02-26T15:36:57;5.87;;;4.90;;
11663;SDS011;72375;59.302;18.204;2024-02-26T15:39:43;7.53;;;5.70;;
11663;SDS011;72375;59.302;18.204;2024-02-26T15:42:30;6.33;;;5.40;;
11663;SDS011;72375;59.302;18.204;2024-02-26T15:45:16;7.70;;;5.87;;
11663;SDS011;72375;59.302;18.204;2024-02-26T15:48:01;6.80;;;5.83;;
11663;SDS011;72375;59.302;18.204;2024-02-26T15:50:47;8.43;;;6.33;;
11663;SDS011;72375;59.302;18.204;2024-02-26T15:53:33;7.93;;;6.57;;
11663;SDS011;72375;59.302;18.204;2024-02-26T15:56:19;9.23;;;6.63;;
11663;SDS011;72375;59.302;18.204;2024-02-26T15:59:08;8.27;;;6.47;;
11663;SDS011;72375;59.302;18.204;2024-02-26T16:01:53;8.50;;;6.60;;
11663;SDS011;72375;59.302;18.204;2024-02-26T16:04:39;9.30;;;7.10;;
11663;SDS011;72375;59.302;18.204;2024-02-26T16:07:26;9.57;;;7.80;;
11663;SDS011;72375;59.302;18.204;2024-02-26T16:10:17;10.33;;;7.40;;
11663;SDS011;72375;59.302;18.204;2024-02-26T16:13:03;10.37;;;8.20;;
11663;SDS011;72375;59.302;18.204;2024-02-26T16:15:52;9.67;;;7.27;;
11663;SDS011;72375;59.302;18.204;2024-02-26T16:18:43;10.63;;;7.90;;
11663;SDS011;72375;59.302;18.204;2024-02-26T16:21:29;9.93;;;7.60;;
11663;SDS011;72375;59.302;18.204;2024-02-26T16:24:14;9.93;;;7.50;;
11663;SDS011;72375;59.302;18.204;2024-02-26T16:27:00;11.17;;;7.63;;